Time;durP1;ratioP1;P1;durP2;ratioP2;P2;SDS_P1;SDS_P2;PMS_P1;PMS_P2;Temp;Humidity;BMP_temperature;BMP_pressure;BME280_temperature;BME280_humidity;BME280_pressure;Samples;Min_cycle;Max_cycle;Signal;HPM_P1;HPM_P2
2021/05/14 00:00:26;;;;;;;;;;;;;;;13.47;78.71;96710.28;1701533;83;26650;-87
2021/05/14 00:02:54;;;;;;;;;;;;;;;13.45;78.81;96709.13;1705822;83;20285;-87
2021/05/14 00:05:21;;;;;;;;;;;;;;;13.45;78.86;96710.94;1707051;83;20550;-87
2021/05/14 00:07:48;;;;;;;;;;;;;;;13.40;78.92;96717.52;1707667;83;24868;-88
2021/05/14 00:10:15;;;;;;;;;;;;;;;13.42;78.98;96710.77;1702927;83;22752;-87
2021/05/14 00:12:42;;;;;;;;;;;;;;;13.43;79.02;96708.47;1703061;83;25946;-87
2021/05/14 00:15:08;;;;;;;;;;;;;;;13.43;79.05;96710.27;1702903;83;24398;-88
2021/05/14 00:17:34;;;;;;;;;;;;;;;13.44;79.11;96706.17;1706672;83;20595;-87
2021/05/14 00:20:04;;;;;;;;;;;;;;;13.40;79.16;96709.64;1708632;83;24880;-88
2021/05/14 00:22:30;;;;;;;;;;;;;;;13.43;79.20;96707.64;1706584;83;22243;-89
2021/05/14 00:24:57;;;;;;;;;;;;;;;13.40;79.25;96704.88;1705751;83;25946;-88
2021/05/14 00:27:23;;;;;;;;;;;;;;;13.43;79.30;96702.39;1705288;83;24415;-88
2021/05/14 00:29:49;;;;;;;;;;;;;;;13.41;79.35;96703.89;1702056;83;20548;-88
2021/05/14 00:32:15;;;;;;;;;;;;;;;13.40;79.37;96704.38;1709390;83;25019;-88
2021/05/14 00:34:44;;;;;;;;;;;;;;;13.38;79.43;96701.58;1709214;82;21953;-88
2021/05/14 00:37:10;;;;;;;;;;;;;;;13.33;79.46;96701.26;1714910;82;26064;-88
2021/05/14 00:39:47;;;;;;;;;;;;;;;13.29;79.48;96711.29;1711086;82;20350;-88
2021/05/14 00:42:14;;;;;;;;;;;;;;;13.28;79.54;96704.39;1704964;82;20312;-88
2021/05/14 00:44:46;;;;;;;;;;;;;;;13.22;79.58;96710.30;1708658;82;24754;-88
2021/05/14 00:47:13;;;;;;;;;;;;;;;13.19;79.62;96712.45;1716217;82;22075;-88
2021/05/14 00:49:43;;;;;;;;;;;;;;;13.16;79.66;96707.52;1701450;82;26753;-88
2021/05/14 00:52:13;;;;;;;;;;;;;;;13.15;79.71;96707.17;1709377;82;25018;-87
2021/05/14 00:54:40;;;;;;;;;;;;;;;13.13;79.77;96705.23;1706165;82;20191;-88
2021/05/14 00:57:06;;;;;;;;;;;;;;;13.08;79.82;96705.70;1712744;82;25016;-88
2021/05/14 00:59:32;;;;;;;;;;;;;;;12.99;79.88;96707.48;1710111;82;22109;-88
2021/05/14 01:02:00;;;;;;;;;;;;;;;12.95;79.92;96710.61;1712859;82;26076;-89
2021/05/14 01:04:32;;;;;;;;;;;;;;;12.91;79.96;96707.99;1712677;82;24413;-88
2021/05/14 01:07:08;;;;;;;;;;;;;;;12.92;80.02;96708.33;1719924;83;20265;-88
2021/05/14 01:09:35;;;;;;;;;;;;;;;12.91;80.08;96712.75;1701912;82;24913;-88
2021/05/14 01:12:01;;;;;;;;;;;;;;;12.88;80.15;96705.19;1710021;82;21945;-88
2021/05/14 01:14:27;;;;;;;;;;;;;;;12.86;80.21;96708.98;1709680;83;25964;-88
2021/05/14 01:16:53;;;;;;;;;;;;;;;12.87;80.27;96706.16;1711641;82;24501;-88
2021/05/14 01:19:20;;;;;;;;;;;;;;;12.88;80.34;96714.86;1710725;82;20216;-88
2021/05/14 01:21:46;;;;;;;;;;;;;;;12.82;80.40;96713.70;1716509;82;24614;-88
2021/05/14 01:24:12;;;;;;;;;;;;;;;12.76;80.45;96710.45;1707706;82;20261;-88
2021/05/14 01:26:44;;;;;;;;;;;;;;;12.71;80.48;96708.78;1703252;82;26016;-88
2021/05/14 01:29:11;;;;;;;;;;;;;;;12.72;80.55;96709.60;1711623;82;24470;-88
2021/05/14 01:31:40;;;;;;;;;;;;;;;12.69;80.61;96716.50;1717047;82;20231;-88
2021/05/14 01:34:07;;;;;;;;;;;;;;;12.66;80.66;96713.69;1716199;82;24696;-88
2021/05/14 01:36:41;;;;;;;;;;;;;;;12.64;80.73;96706.98;1708242;82;22010;-88
2021/05/14 01:39:12;;;;;;;;;;;;;;;12.64;80.77;96709.61;1716845;82;26147;-88
2021/05/14 01:41:38;;;;;;;;;;;;;;;12.67;80.82;96710.58;1720304;82;24682;-88
2021/05/14 01:44:06;;;;;;;;;;;;;;;12.69;80.88;96701.58;1710499;82;20340;-88
2021/05/14 01:46:32;;;;;;;;;;;;;;;12.72;80.93;96709.11;1716413;82;24764;-87
2021/05/14 01:48:58;;;;;;;;;;;;;;;12.74;80.99;96711.58;1693136;83;21863;-87
2021/05/14 01:51:25;;;;;;;;;;;;;;;12.71;81.03;96710.09;1713761;83;21167;-88
2021/05/14 01:53:52;;;;;;;;;;;;;;;12.72;81.08;96705.66;1715274;82;24444;-87
2021/05/14 01:56:18;;;;;;;;;;;;;;;12.72;81.10;96706.98;1722079;82;20530;-88
2021/05/14 01:58:50;;;;;;;;;;;;;;;12.67;81.14;96714.52;1713994;82;24882;-88
2021/05/14 02:01:17;;;;;;;;;;;;;;;12.63;81.16;96711.89;1719890;82;21909;-88
2021/05/14 02:03:46;;;;;;;;;;;;;;;12.59;81.17;96719.28;1714582;82;25954;-87
2021/05/14 02:06:12;;;;;;;;;;;;;;;12.56;81.21;96719.59;1722868;82;24503;-87
2021/05/14 02:08:38;;;;;;;;;;;;;;;12.53;81.21;96722.55;1709151;82;20211;-87
2021/05/14 02:11:09;;;;;;;;;;;;;;;12.52;81.23;96718.27;1717324;82;24843;-87
2021/05/14 02:13:32;;;;;;;;;;;;;;;12.55;81.26;96717.94;1711682;82;21958;-87
2021/05/14 02:15:58;;;;;;;;;;;;;;;12.56;81.27;96720.90;1716692;82;20950;-87
2021/05/14 02:18:24;;;;;;;;;;;;;;;12.56;81.29;96723.03;1721608;82;24548;-87
2021/05/14 02:20:50;;;;;;;;;;;;;;;12.55;81.31;96729.75;1717753;82;20545;-87
2021/05/14 02:23:19;;;;;;;;;;;;;;;12.55;81.32;96728.44;1713140;82;25582;-87
2021/05/14 02:25:45;;;;;;;;;;;;;;;12.52;81.36;96726.97;1709401;82;21949;-88
2021/05/14 02:28:12;;;;;;;;;;;;;;;12.52;81.36;96727.45;1719456;82;21039;-87
2021/05/14 02:30:38;;;;;;;;;;;;;;;12.54;81.37;96730.75;1714265;82;24418;-87
2021/05/14 02:33:07;;;;;;;;;;;;;;;12.55;81.42;96734.51;1689148;83;20524;-88
2021/05/14 02:35:38;;;;;;;;;;;;;;;12.56;81.42;96727.45;1718974;82;26683;-88
2021/05/14 02:38:05;;;;;;;;;;;;;;;12.60;81.44;96726.67;1717646;82;22081;-87
2021/05/14 02:40:31;;;;;;;;;;;;;;;12.62;81.47;96729.44;1714423;82;26036;-87
2021/05/14 02:42:57;;;;;;;;;;;;;;;12.60;81.47;96727.98;1701205;82;24492;-88
2021/05/14 02:45:24;;;;;;;;;;;;;;;12.57;81.50;96726.48;1722052;82;20204;-88
2021/05/14 02:47:56;;;;;;;;;;;;;;;12.56;81.51;96730.08;1719116;82;24740;-88
2021/05/14 02:50:22;;;;;;;;;;;;;;;12.51;81.49;96725.32;1708337;82;21993;-88
2021/05/14 02:52:48;;;;;;;;;;;;;;;12.54;81.52;96728.95;1714045;82;25956;-88
2021/05/14 02:55:15;;;;;;;;;;;;;;;12.56;81.54;96727.45;1721143;82;24458;-88
2021/05/14 02:57:44;;;;;;;;;;;;;;;12.55;81.53;96732.38;1712934;82;20563;-87
2021/05/14 03:00:11;;;;;;;;;;;;;;;12.57;81.54;96726.48;1711751;82;24859;-88
2021/05/14 03:02:37;;;;;;;;;;;;;;;12.56;81.56;96731.39;1717909;82;22065;-87
2021/05/14 03:05:03;;;;;;;;;;;;;;;12.55;81.57;96727.12;1717088;82;25968;-88
2021/05/14 03:07:29;;;;;;;;;;;;;;;12.58;81.56;96729.44;1713622;82;24573;-88
2021/05/14 03:09:59;;;;;;;;;;;;;;;12.62;81.60;96734.69;1711954;82;20291;-88
2021/05/14 03:12:26;;;;;;;;;;;;;;;12.64;81.59;96728.80;1719891;82;24868;-88
2021/05/14 03:14:51;;;;;;;;;;;;;;;12.62;81.63;96730.75;1716091;82;22002;-88
2021/05/14 03:17:17;;;;;;;;;;;;;;;12.57;81.61;96737.80;1714634;82;20847;-88
2021/05/14 03:19:43;;;;;;;;;;;;;;;12.56;81.61;96743.20;1716532;82;24492;-88
2021/05/14 03:22:09;;;;;;;;;;;;;;;12.52;81.61;96744.03;1714642;82;20768;-88
2021/05/14 03:24:35;;;;;;;;;;;;;;;12.52;81.60;96748.45;1713691;82;20742;-88
2021/05/14 03:27:01;;;;;;;;;;;;;;;12.51;81.61;96750.73;1704867;82;22077;-88
2021/05/14 03:29:33;;;;;;;;;;;;;;;12.52;81.61;96755.83;1710284;82;20931;-88
2021/05/14 03:31:59;;;;;;;;;;;;;;;12.49;81.65;96756.66;1706613;82;24690;-88
2021/05/14 03:34:25;;;;;;;;;;;;;;;12.49;81.62;96751.41;1706550;82;20231;-87
2021/05/14 03:37:02;;;;;;;;;;;;;;;12.53;81.64;96755.34;1712545;83;20255;-87
2021/05/14 03:39:28;;;;;;;;;;;;;;;12.55;81.65;96764.69;1708737;83;21919;-88
2021/05/14 03:44:38;;;;;;;;;;;;;;;12.57;81.70;96760.59;1707757;83;25206;-87
2021/05/14 03:47:04;;;;;;;;;;;;;;;12.56;81.70;96761.58;1710648;83;20585;-87
2021/05/14 03:49:33;;;;;;;;;;;;;;;12.53;81.69;96765.84;1716900;83;24819;-87
2021/05/14 03:52:00;;;;;;;;;;;;;;;12.56;81.70;96773.38;1717123;83;22816;-88
2021/05/14 03:54:26;;;;;;;;;;;;;;;12.57;81.71;96770.60;1710213;83;25941;-87
2021/05/14 03:56:52;;;;;;;;;;;;;;;12.58;81.71;96773.56;1718891;83;24460;-87
2021/05/14 03:59:18;;;;;;;;;;;;;;;12.59;81.75;96773.08;1712903;83;20318;-87
2021/05/14 04:01:46;;;;;;;;;;;;;;;12.58;81.75;96775.36;1717208;83;25547;-87
2021/05/14 04:04:13;;;;;;;;;;;;;;;12.58;81.75;96780.12;1717927;83;22673;-88
2021/05/14 04:06:39;;;;;;;;;;;;;;;12.55;81.75;96775.67;1714613;83;25941;-88
2021/05/14 04:09:05;;;;;;;;;;;;;;;12.56;81.75;96778.63;1709957;83;20390;-88
2021/05/14 04:16:47;;;;;;;;;;;;;;;12.53;81.79;96783.72;1713152;83;22138;-87
2021/05/14 04:19:20;;;;;;;;;;;;;;;12.52;81.81;96787.81;1719563;83;26116;-88
2021/05/14 04:21:46;;;;;;;;;;;;;;;12.54;81.79;96778.81;1715606;83;24553;-88
2021/05/14 04:24:11;;;;;;;;;;;;;;;12.58;81.83;96787.17;1709302;83;20507;-88
2021/05/14 04:26:37;;;;;;;;;;;;;;;12.62;81.85;96790.29;1713415;83;20382;-88
2021/05/14 04:29:03;;;;;;;;;;;;;;;12.62;81.84;96785.87;1721927;83;20369;-88
2021/05/14 04:31:30;;;;;;;;;;;;;;;12.56;81.88;96788.64;1718074;83;26725;-88
2021/05/14 04:33:57;;;;;;;;;;;;;;;12.56;81.86;96796.52;1721079;83;24645;-88
2021/05/14 04:36:24;;;;;;;;;;;;;;;12.56;81.86;96793.89;1715679;83;20217;-87
2021/05/14 04:38:54;;;;;;;;;;;;;;;12.57;81.86;96801.27;1717509;83;24819;-88
2021/05/14 04:41:35;;;;;;;;;;;;;;;12.57;81.88;96790.77;1715629;83;22724;-88
2021/05/14 04:44:02;;;;;;;;;;;;;;;12.61;81.91;96796.52;1686144;83;26275;-88
2021/05/14 04:46:37;;;;;;;;;;;;;;;12.68;81.93;96797.04;1708806;83;24461;-88
2021/05/14 04:49:06;;;;;;;;;;;;;;;12.70;81.94;96803.45;1717196;83;20272;-88
2021/05/14 04:51:38;;;;;;;;;;;;;;;12.70;81.94;96802.14;1717059;83;25315;-88
2021/05/14 04:54:05;;;;;;;;;;;;;;;12.75;81.96;96803.79;1719517;83;22033;-88
2021/05/14 04:56:31;;;;;;;;;;;;;;;12.83;81.99;96804.61;1714145;83;26150;-87
2021/05/14 04:58:57;;;;;;;;;;;;;;;12.87;81.98;96801.98;1705898;83;24535;-88
2021/05/14 05:01:23;;;;;;;;;;;;;;;12.93;82.00;96805.29;1720936;83;20772;-88
2021/05/14 05:03:55;;;;;;;;;;;;;;;12.93;82.02;96801.34;1717652;83;20338;-88
2021/05/14 05:06:24;;;;;;;;;;;;;;;13.02;82.01;96807.45;1721307;83;22821;-88
2021/05/14 05:08:51;;;;;;;;;;;;;;;13.06;82.01;96809.25;1704843;83;25939;-88
2021/05/14 05:11:18;;;;;;;;;;;;;;;13.06;82.01;96807.94;1718034;83;24459;-88
2021/05/14 05:13:50;;;;;;;;;;;;;;;13.04;82.00;96812.03;1710447;83;20257;-88
2021/05/14 05:16:16;;;;;;;;;;;;;;;13.05;81.98;96811.06;1713704;83;24748;-88
2021/05/14 05:18:42;;;;;;;;;;;;;;;13.05;81.96;96813.68;1707364;83;21991;-88
2021/05/14 05:21:08;;;;;;;;;;;;;;;13.05;81.96;96810.23;1717437;83;20947;-88
2021/05/14 05:23:34;;;;;;;;;;;;;;;13.04;81.94;96811.24;1679161;83;24282;-88
2021/05/14 05:26:00;;;;;;;;;;;;;;;13.01;81.92;96817.63;1720569;83;20345;-88
2021/05/14 05:28:27;;;;;;;;;;;;;;;12.98;81.89;96820.59;1719617;83;24809;-88
2021/05/14 05:30:54;;;;;;;;;;;;;;;12.95;81.87;96824.83;1709388;83;22683;-88
2021/05/14 05:33:20;;;;;;;;;;;;;;;12.93;81.84;96828.92;1715543;83;26015;-88
2021/05/14 05:35:46;;;;;;;;;;;;;;;12.95;81.84;96829.59;1708544;83;20683;-87
2021/05/14 05:38:20;;;;;;;;;;;;;;;12.96;81.83;96837.81;1716593;83;20720;-88
2021/05/14 05:40:47;;;;;;;;;;;;;;;13.00;81.83;96840.92;1711860;83;24905;-88
2021/05/14 05:43:14;;;;;;;;;;;;;;;13.06;81.83;96843.39;1708931;83;21959;-87
2021/05/14 05:45:40;;;;;;;;;;;;;;;13.08;81.84;96842.27;1711858;83;26207;-87
2021/05/14 05:48:08;;;;;;;;;;;;;;;13.03;81.84;96847.67;1713965;83;24503;-88
2021/05/14 05:50:35;;;;;;;;;;;;;;;12.99;81.83;96849.29;1712675;83;20216;-87
2021/05/14 05:53:01;;;;;;;;;;;;;;;12.90;81.83;96858.63;1711168;83;25050;-88
2021/05/14 05:55:27;;;;;;;;;;;;;;;12.83;81.80;96854.50;1711100;83;21900;-88
2021/05/14 05:57:57;;;;;;;;;;;;;;;12.73;81.78;96853.81;1713846;83;25984;-88
2021/05/14 06:00:27;;;;;;;;;;;;;;;12.68;81.77;96852.16;1703470;83;25452;-88
2021/05/14 06:02:53;;;;;;;;;;;;;;;12.67;81.76;96864.95;1709433;83;20566;-87
2021/05/14 06:05:20;;;;;;;;;;;;;;;12.64;81.77;96862.65;1712037;83;20243;-87
2021/05/14 06:07:51;;;;;;;;;;;;;;;12.67;81.79;96871.50;1690919;83;22632;-87
2021/05/14 06:10:22;;;;;;;;;;;;;;;12.67;81.82;96874.13;1711457;83;25964;-88
2021/05/14 06:12:49;;;;;;;;;;;;;;;12.66;81.84;96875.59;1709500;83;24493;-88
2021/05/14 06:15:15;;;;;;;;;;;;;;;12.69;81.86;96879.23;1714272;83;20276;-88
2021/05/14 06:17:42;;;;;;;;;;;;;;;12.74;81.93;96879.58;1714258;83;20378;-88
2021/05/14 06:20:10;;;;;;;;;;;;;;;12.76;81.93;96880.25;1710975;83;22737;-88
2021/05/14 06:22:36;;;;;;;;;;;;;;;12.78;81.98;96886.14;1708868;83;26820;-87
2021/05/14 06:25:03;;;;;;;;;;;;;;;12.80;81.99;96882.39;1715130;83;24543;-88
2021/05/14 06:27:30;;;;;;;;;;;;;;;12.81;82.04;96887.98;1706166;83;20661;-87
2021/05/14 06:29:56;;;;;;;;;;;;;;;12.79;82.05;96882.55;1711539;83;25484;-87
2021/05/14 06:32:22;;;;;;;;;;;;;;;12.81;82.07;96884.05;1716525;83;21854;-88
2021/05/14 06:34:54;;;;;;;;;;;;;;;12.86;82.08;96891.44;1716672;83;25892;-88
2021/05/14 06:37:21;;;;;;;;;;;;;;;12.80;82.09;96887.64;1722448;82;25191;-88
2021/05/14 06:39:51;;;;;;;;;;;;;;;12.81;82.09;96889.78;1725917;83;20629;-87
2021/05/14 06:42:17;;;;;;;;;;;;;;;12.85;82.12;96896.35;1721909;82;25063;-88
2021/05/14 06:44:43;;;;;;;;;;;;;;;12.87;82.14;96900.45;1716180;82;20743;-88
2021/05/14 06:47:09;;;;;;;;;;;;;;;12.92;82.16;96900.00;1722799;82;26168;-88
2021/05/14 06:49:37;;;;;;;;;;;;;;;12.93;82.17;96902.93;1719766;83;24672;-88
2021/05/14 06:52:03;;;;;;;;;;;;;;;12.89;82.17;96906.37;1725669;82;20270;-87
2021/05/14 06:54:29;;;;;;;;;;;;;;;12.88;82.17;96909.97;1717325;83;24954;-87
2021/05/14 06:56:56;;;;;;;;;;;;;;;12.90;82.17;96913.27;1728285;82;20334;-87
2021/05/14 06:59:23;;;;;;;;;;;;;;;12.92;82.18;96917.06;1712826;82;25944;-87
2021/05/14 07:01:50;;;;;;;;;;;;;;;12.83;82.20;96916.19;1721377;82;24540;-87
2021/05/14 07:04:16;;;;;;;;;;;;;;;12.76;82.18;96918.31;1681351;83;20693;-88
2021/05/14 07:06:42;;;;;;;;;;;;;;;12.71;82.17;96917.45;1709477;82;24903;-87
2021/05/14 07:09:08;;;;;;;;;;;;;;;12.68;82.18;96919.09;1723451;83;20282;-87
2021/05/14 07:11:34;;;;;;;;;;;;;;;12.65;82.18;96925.16;1722687;82;20934;-88
2021/05/14 07:14:00;;;;;;;;;;;;;;;12.60;82.19;96924.80;1726156;82;20252;-87
2021/05/14 07:16:27;;;;;;;;;;;;;;;12.55;82.19;96930.49;1716326;82;20284;-88
2021/05/14 07:18:53;;;;;;;;;;;;;;;12.51;82.20;96937.04;1721826;82;24857;-88
2021/05/14 07:21:19;;;;;;;;;;;;;;;12.49;82.24;96940.33;1718872;82;21938;-87
2021/05/14 07:23:45;;;;;;;;;;;;;;;12.48;82.26;96942.61;1724942;82;26178;-88
2021/05/14 07:26:11;;;;;;;;;;;;;;;12.51;82.31;96942.28;1723289;82;20323;-87
2021/05/14 07:28:37;;;;;;;;;;;;;;;12.53;82.36;96939.85;1718776;82;20286;-88
2021/05/14 07:31:03;;;;;;;;;;;;;;;12.55;82.42;96940.98;1717430;82;24777;-88
2021/05/14 07:33:29;;;;;;;;;;;;;;;12.53;82.45;96939.85;1720837;82;21948;-88
2021/05/14 07:35:55;;;;;;;;;;;;;;;12.53;82.49;96945.59;1708157;82;21077;-87
2021/05/14 07:38:23;;;;;;;;;;;;;;;12.56;82.53;96942.64;1682771;83;24436;-88
2021/05/14 07:41:01;;;;;;;;;;;;;;;12.60;82.56;96953.15;1708684;82;20690;-88
2021/05/14 07:43:33;;;;;;;;;;;;;;;12.63;82.61;96948.92;1696726;82;24777;-87
2021/05/14 07:45:59;;;;;;;;;;;;;;;12.63;82.65;96954.17;1685926;83;22056;-88
2021/05/14 07:48:26;;;;;;;;;;;;;;;12.65;82.68;96957.47;1721401;83;25998;-88
2021/05/14 07:50:53;;;;;;;;;;;;;;;12.67;82.71;96959.43;1722722;83;24530;-88
2021/05/14 07:53:19;;;;;;;;;;;;;;;12.65;82.74;96960.58;1721444;83;20235;-88
2021/05/14 07:55:45;;;;;;;;;;;;;;;12.64;82.74;96962.87;1721365;83;25463;-87
2021/05/14 07:58:11;;;;;;;;;;;;;;;12.63;82.75;96954.17;1721331;83;21932;-87
2021/05/14 08:00:40;;;;;;;;;;;;;;;12.63;82.77;96963.84;1722323;83;26141;-87
2021/05/14 08:03:06;;;;;;;;;;;;;;;12.61;82.79;96963.98;1721043;83;24458;-87
2021/05/14 08:05:32;;;;;;;;;;;;;;;12.56;82.83;96963.15;1721767;83;20350;-87
2021/05/14 08:08:00;;;;;;;;;;;;;;;12.53;82.82;96971.34;1720747;83;24745;-89
2021/05/14 08:10:26;;;;;;;;;;;;;;;12.56;82.84;96970.20;1721311;83;21995;-88
2021/05/14 08:12:52;;;;;;;;;;;;;;;12.58;82.84;96971.70;1722276;83;25920;-89
2021/05/14 08:15:27;;;;;;;;;;;;;;;12.61;82.88;96973.17;1713134;83;20304;-89
2021/05/14 08:17:51;;;;;;;;;;;;;;;12.65;82.92;96976.33;1722097;83;20224;-89
2021/05/14 08:20:20;;;;;;;;;;;;;;;12.64;82.95;96974.67;1723135;83;24237;-88
2021/05/14 08:22:46;;;;;;;;;;;;;;;12.62;82.98;96983.19;1722687;83;22064;-88
2021/05/14 08:25:13;;;;;;;;;;;;;;;12.61;82.98;96982.36;1722098;83;26031;-88
2021/05/14 08:27:39;;;;;;;;;;;;;;;12.67;83.01;96981.74;1698420;83;24539;-88
2021/05/14 08:30:07;;;;;;;;;;;;;;;12.72;83.03;96982.58;1723534;83;20534;-89
2021/05/14 08:32:38;;;;;;;;;;;;;;;12.72;83.04;96986.52;1722736;83;24817;-89
2021/05/14 08:35:05;;;;;;;;;;;;;;;12.72;83.06;96992.59;1717464;83;22068;-88
2021/05/14 08:37:31;;;;;;;;;;;;;;;12.70;83.09;96993.26;1725026;82;26190;-88
2021/05/14 08:39:57;;;;;;;;;;;;;;;12.68;83.09;96997.83;1727024;82;24594;-88
2021/05/14 08:42:24;;;;;;;;;;;;;;;12.68;83.10;97001.77;1727933;82;20243;-88
2021/05/14 08:44:50;;;;;;;;;;;;;;;12.67;83.11;97001.42;1728478;82;24862;-89
2021/05/14 08:47:17;;;;;;;;;;;;;;;12.63;83.10;97000.09;1722145;82;21960;-88
2021/05/14 08:49:45;;;;;;;;;;;;;;;12.62;83.09;97000.24;1731067;82;25943;-88
2021/05/14 08:52:11;;;;;;;;;;;;;;;12.60;83.12;97003.53;1726505;82;24437;-88
2021/05/14 08:54:42;;;;;;;;;;;;;;;12.56;83.12;97003.00;1731799;82;20628;-88
2021/05/14 08:57:06;;;;;;;;;;;;;;;12.60;83.12;97003.53;1724450;82;25472;-88
2021/05/14 08:59:31;;;;;;;;;;;;;;;12.66;83.16;97009.45;1725094;82;20321;-88
2021/05/14 09:01:57;;;;;;;;;;;;;;;12.68;83.20;97013.58;1730512;82;20953;-88
2021/05/14 09:04:25;;;;;;;;;;;;;;;12.76;83.23;97015.44;1731133;82;20400;-88
2021/05/14 09:06:55;;;;;;;;;;;;;;;12.81;83.27;97011.38;1732771;82;20235;-88
2021/05/14 09:09:20;;;;;;;;;;;;;;;12.86;83.30;97016.98;1704525;83;24780;-88
2021/05/14 09:11:53;;;;;;;;;;;;;;;12.92;83.34;97022.92;1727918;82;20254;-88
2021/05/14 09:14:36;;;;;;;;;;;;;;;12.98;83.37;97022.27;1731725;82;25943;-88
2021/05/14 09:17:06;;;;;;;;;;;;;;;13.02;83.41;97025.91;1727199;82;24413;-89
2021/05/14 09:19:33;;;;;;;;;;;;;;;12.99;83.39;97029.66;1728682;82;20247;-89
2021/05/14 09:22:09;;;;;;;;;;;;;;;13.01;83.39;97031.66;1728324;82;24692;-89
2021/05/14 09:27:25;;;;;;;;;;;;;;;13.02;83.38;97042.49;1687259;83;26011;-89
2021/05/14 09:29:51;;;;;;;;;;;;;;;13.06;83.38;97043.82;1704735;82;24558;-89
2021/05/14 09:32:19;;;;;;;;;;;;;;;13.10;83.39;97045.63;1703301;82;20267;-89
2021/05/14 09:34:49;;;;;;;;;;;;;;;13.05;83.38;97050.05;1661344;85;24640;-89
2021/05/14 09:37:16;;;;;;;;;;;;;;;13.04;83.35;97052.86;1704924;82;21988;-89
2021/05/14 09:39:42;;;;;;;;;;;;;;;13.03;83.32;97048.58;1687594;83;26030;-89
2021/05/14 09:42:09;;;;;;;;;;;;;;;13.02;83.31;97048.23;1693289;82;25063;-89
2021/05/14 09:44:35;;;;;;;;;;;;;;;13.02;83.30;97055.62;1697356;82;20255;-88
2021/05/14 09:47:05;;;;;;;;;;;;;;;13.03;83.30;97058.59;1709019;82;24926;-89
2021/05/14 09:49:29;;;;;;;;;;;;;;;13.01;83.28;97059.23;1720866;82;22742;-89
2021/05/14 09:51:59;;;;;;;;;;;;;;;13.06;83.28;97067.95;1709441;82;26096;-89
2021/05/14 09:54:33;;;;;;;;;;;;;;;13.08;83.31;97067.31;1711348;82;24602;-88
2021/05/14 09:57:41;;;;;;;;;;;;;;;13.12;83.29;97068.67;1708265;82;20304;-89
2021/05/14 09:59:51;;;;;;;;;;;;;;;13.17;83.28;97064.59;1693121;82;24895;-89
2021/05/14 10:02:33;;;;;;;;;;;;;;;13.19;83.28;97070.53;1694327;82;22598;-88
2021/05/14 10:05:00;;;;;;;;;;;;;;;13.18;83.28;97062.80;1708130;82;27323;-89
2021/05/14 10:07:27;;;;;;;;;;;;;;;13.21;83.27;97071.17;1718473;82;24625;-89
2021/05/14 10:09:56;;;;;;;;;;;;;;;13.25;83.27;97070.39;1703001;82;20625;-89
2021/05/14 10:12:22;;;;;;;;;;;;;;;13.27;83.25;97071.04;1676148;82;24795;-89
2021/05/14 10:14:48;;;;;;;;;;;;;;;13.30;83.27;97070.74;1682062;82;21869;-90
2021/05/14 10:17:14;;;;;;;;;;;;;;;13.36;83.25;97064.86;1718757;82;26021;-90
2021/05/14 10:19:44;;;;;;;;;;;;;;;13.41;83.25;97074.41;1723369;82;20305;-90
2021/05/14 10:22:11;;;;;;;;;;;;;;;13.40;83.22;97077.52;1687759;82;20239;-89
2021/05/14 10:24:47;;;;;;;;;;;;;;;13.42;83.20;97079.97;1653358;82;21657;-89
2021/05/14 10:27:23;;;;;;;;;;;;;;;13.38;83.19;97083.41;1714280;82;21504;-90
2021/05/14 10:29:52;;;;;;;;;;;;;;;13.30;83.14;97077.31;1696334;82;26146;-89
2021/05/14 10:32:35;;;;;;;;;;;;;;;13.27;83.09;97083.69;1701068;82;24398;-88
2021/05/14 10:35:04;;;;;;;;;;;;;;;13.21;83.00;97083.00;1671893;84;20647;-89
2021/05/14 10:37:46;;;;;;;;;;;;;;;13.18;82.94;97083.81;1699415;82;24828;-89
2021/05/14 10:42:59;;;;;;;;;;;;;;;13.18;82.92;97089.89;1718194;82;26657;-88
2021/05/14 10:45:45;;;;;;;;;;;;;;;13.17;82.86;97092.66;1696456;82;24417;-89
2021/05/14 10:48:22;;;;;;;;;;;;;;;13.17;82.83;97093.98;1717871;82;20270;-89
2021/05/14 10:50:52;;;;;;;;;;;;;;;13.20;82.84;97099.73;1708496;82;25389;-89
2021/05/14 10:53:28;;;;;;;;;;;;;;;13.17;82.82;97100.06;1687668;82;21585;-89
2021/05/14 10:55:55;;;;;;;;;;;;;;;13.15;82.83;97098.06;1674750;82;26069;-89
2021/05/14 10:58:40;;;;;;;;;;;;;;;13.17;82.80;97100.55;1723662;82;24428;-89
2021/05/14 11:01:06;;;;;;;;;;;;;;;13.17;82.79;97107.11;1719353;82;20227;-89
2021/05/14 11:03:33;;;;;;;;;;;;;;;13.18;82.80;97105.66;1716234;82;24833;-88
2021/05/14 11:09:07;;;;;;;;;;;;;;;13.16;82.76;97113.34;1659150;85;26270;-88
2021/05/14 11:11:33;;;;;;;;;;;;;;;13.16;82.75;97109.40;1657243;85;24301;-89
2021/05/14 11:14:16;;;;;;;;;;;;;;;13.13;82.75;97116.30;1663327;85;20369;-89
2021/05/14 11:16:48;;;;;;;;;;;;;;;13.12;82.73;97119.89;1659099;84;25029;-89
2021/05/14 11:19:19;;;;;;;;;;;;;;;13.15;82.71;97121.70;1625554;86;22028;-89
2021/05/14 11:21:56;;;;;;;;;;;;;;;13.14;82.70;97125.83;1647658;84;26785;-89
2021/05/14 11:24:28;;;;;;;;;;;;;;;13.13;82.69;97122.38;1619269;87;24588;-88
2021/05/14 11:27:00;;;;;;;;;;;;;;;13.14;82.68;97130.59;1665562;84;20295;-89
2021/05/14 11:29:30;;;;;;;;;;;;;;;13.16;82.67;97128.61;1670458;85;24986;-88
2021/05/14 11:31:58;;;;;;;;;;;;;;;13.18;82.69;97125.84;1653269;85;21981;-89
2021/05/14 11:34:28;;;;;;;;;;;;;;;13.15;82.67;97129.59;1618136;86;26752;-88
2021/05/14 11:36:54;;;;;;;;;;;;;;;13.14;82.67;97137.16;1643894;86;25205;-89
2021/05/14 11:39:23;;;;;;;;;;;;;;;13.16;82.68;97133.87;1670265;83;20253;-89
2021/05/14 11:41:51;;;;;;;;;;;;;;;13.18;82.68;97135.86;1671732;84;24798;-89
2021/05/14 11:44:17;;;;;;;;;;;;;;;13.20;82.70;97139.66;1675614;83;21968;-89
2021/05/14 11:46:44;;;;;;;;;;;;;;;13.21;82.72;97139.97;1655129;86;26246;-89
2021/05/14 11:49:10;;;;;;;;;;;;;;;13.21;82.75;97141.28;1660325;86;24403;-90
2021/05/14 11:51:38;;;;;;;;;;;;;;;13.23;82.72;97144.59;1662934;86;20297;-89
2021/05/14 11:54:09;;;;;;;;;;;;;;;13.23;82.75;97149.84;1687684;82;24894;-89
2021/05/14 11:56:35;;;;;;;;;;;;;;;13.23;82.75;97145.41;1674299;83;21993;-89
2021/05/14 11:59:01;;;;;;;;;;;;;;;13.28;82.76;97151.03;1660796;86;26186;-88
2021/05/14 12:01:41;;;;;;;;;;;;;;;13.31;82.78;97140.71;1665918;86;24623;-88
2021/05/14 12:04:14;;;;;;;;;;;;;;;13.33;82.79;97139.56;1666719;85;20278;-88
2021/05/14 12:06:47;;;;;;;;;;;;;;;13.38;82.80;97146.97;1641031;86;24637;-88
2021/05/14 12:09:15;;;;;;;;;;;;;;;13.40;82.82;97150.28;1697388;83;22816;-88
2021/05/14 12:11:42;;;;;;;;;;;;;;;13.48;82.83;97155.56;1695583;83;25976;-88
2021/05/14 12:14:08;;;;;;;;;;;;;;;13.56;82.88;97157.42;1704788;83;24516;-88
2021/05/14 12:16:37;;;;;;;;;;;;;;;13.60;82.89;97162.69;1688165;83;20291;-89
2021/05/14 12:19:04;;;;;;;;;;;;;;;13.61;82.91;97162.54;1651730;85;24802;-89
2021/05/14 12:21:31;;;;;;;;;;;;;;;13.62;82.94;97169.45;1693567;82;22246;-88
2021/05/14 12:24:00;;;;;;;;;;;;;;;13.55;82.93;97172.36;1679697;84;26194;-88
2021/05/14 12:26:30;;;;;;;;;;;;;;;13.47;82.90;97175.45;1695432;84;24410;-88
2021/05/14 12:28:56;;;;;;;;;;;;;;;13.40;82.85;97176.55;1697903;84;20296;-88
2021/05/14 12:31:24;;;;;;;;;;;;;;;13.36;82.82;97180.48;1691725;84;24703;-88
2021/05/14 12:34:00;;;;;;;;;;;;;;;13.27;82.82;97180.08;1695458;83;22083;-88
2021/05/14 12:36:27;;;;;;;;;;;;;;;13.18;82.79;97183.63;1710978;83;25952;-89
2021/05/14 12:38:55;;;;;;;;;;;;;;;13.09;82.75;97187.16;1710602;83;24596;-89
2021/05/14 12:41:23;;;;;;;;;;;;;;;12.99;82.76;97192.00;1709447;81;20226;-88
2021/05/14 12:43:51;;;;;;;;;;;;;;;12.90;82.74;97191.61;1714750;83;25456;-88
2021/05/14 12:46:17;;;;;;;;;;;;;;;12.84;82.74;97196.14;1719408;81;21926;-88
2021/05/14 12:48:45;;;;;;;;;;;;;;;12.80;82.71;97200.55;1716478;83;26035;-88
2021/05/14 12:51:11;;;;;;;;;;;;;;;12.76;82.73;97205.77;1714357;82;24721;-88
2021/05/14 12:53:44;;;;;;;;;;;;;;;12.72;82.72;97209.16;1715484;83;20229;-89
2021/05/14 12:56:28;;;;;;;;;;;;;;;12.70;82.72;97212.44;1718256;82;24777;-88
2021/05/14 12:58:56;;;;;;;;;;;;;;;12.69;82.77;97210.78;1705837;83;22208;-88
2021/05/14 13:01:23;;;;;;;;;;;;;;;12.69;82.77;97210.78;1696573;83;26142;-88
2021/05/14 13:03:49;;;;;;;;;;;;;;;12.65;82.80;97217.80;1699503;82;24520;-88
2021/05/14 13:06:15;;;;;;;;;;;;;;;12.63;82.83;97220.56;1711747;83;20319;-88
2021/05/14 13:08:41;;;;;;;;;;;;;;;12.64;82.85;97218.28;1697952;83;20250;-89